Weather at Cowra Airport

Public forecast

Using degrees Celsius for public forecast. Weather courtesy of forecast.io.

Closest aviation weather report (METAR) to Cowra Airport

Closest report is Canberra International Airport, 91.7 nm (169.9 km) SSE.

2024/07/25 06:30 (retrieved 34 minutes ago)

YSCB 250630Z AUTO 27005KT 9999 // FEW043 13/07 Q1013 RF000/0000

Closest aviation forecast (TAF) to Cowra Airport

Closest forecast is Canberra International Airport, 91.7 nm (169.9 km) SSE.

2024/07/25 06:27 Ammendment (retrieved 37 minutes ago)

AMD YSCB 250523Z 2506/2606 29012KT 9999 -SHRA FEW015 BKN030 FM251500 29010KT 9999 NSW SCT015 FM260000 31006KT CAVOK TEMPO 2507/2514 31015G25KT 3000 RA BKN015 PROB30 2518/2600 0300 FG BKN001